Details for Ryanair at LEBL




Go Back


Latest METAR
Local Time

LEBL 241400Z 20013KT 170V230 9999 FEW025 11/02 Q1007 NOSIG

24/02/2018, 15:05:32

Description
Results
Ryanair Logo
Number of Pilots based at LEBL
0 Pilots Based here
Number of Ryanair Flights Departed from LEBL
6 Flights Departed
Number of Ryanair Flights Arrived at LEBL
10 Flights Arrived
Number of Ryanair Schedules Departing from LEBL
110 Schedules
Number of Ryanair Schedules Arriving at LEBL
106 Schedules
Number of Ryanair Schedules Departing from LEBL availible today
60 Schedules Today
Number of Ryanair Schedules Arriving at LEBL availible today
62 Schedules Today
Average Landing Rate at LEBL
-198 fpm
Ryanair Average Landing Rate at LEBL
-221 fpm
Total Fuel Purchased at LEBL by Ryanair
36,905.64 kgs / 81,362.17 lbs

Pilots Based at LEBL


Pilot ID
Pilot Name
Pilot Rank
No. of Flights
No. of Flying Hours
There are no pilots assigned to this hub!   Will you be the first?
Content